sensor_id;sensor_type;location;lat;lon;timestamp;P1;durP1;ratioP1;P2;durP2;ratioP2
21258;SDS011;10787;53.364;-1.480;2022-10-22T00:02:07;3.88;;;1.98;;
21258;SDS011;10787;53.364;-1.480;2022-10-22T00:04:33;3.55;;;1.80;;
21258;SDS011;10787;53.364;-1.480;2022-10-22T00:06:59;4.55;;;1.63;;
21258;SDS011;10787;53.364;-1.480;2022-10-22T00:09:25;6.30;;;3.03;;
21258;SDS011;10787;53.364;-1.480;2022-10-22T00:11:51;4.40;;;1.60;;
21258;SDS011;10787;53.364;-1.480;2022-10-22T00:14:18;3.33;;;1.50;;
21258;SDS011;10787;53.364;-1.480;2022-10-22T00:16:44;4.32;;;1.50;;
21258;SDS011;10787;53.364;-1.480;2022-10-22T00:19:09;3.78;;;1.45;;
21258;SDS011;10787;53.364;-1.480;2022-10-22T00:21:37;5.35;;;1.67;;
21258;SDS011;10787;53.364;-1.480;2022-10-22T00:24:03;5.95;;;1.70;;
21258;SDS011;10787;53.364;-1.480;2022-10-22T00:26:29;3.50;;;1.30;;
21258;SDS011;10787;53.364;-1.480;2022-10-22T00:28:55;7.55;;;1.60;;
21258;SDS011;10787;53.364;-1.480;2022-10-22T00:31:21;6.32;;;1.38;;
21258;SDS011;10787;53.364;-1.480;2022-10-22T00:33:47;4.20;;;1.35;;
21258;SDS011;10787;53.364;-1.480;2022-10-22T00:36:13;5.43;;;1.30;;
21258;SDS011;10787;53.364;-1.480;2022-10-22T00:38:39;8.45;;;1.70;;
21258;SDS011;10787;53.364;-1.480;2022-10-22T00:41:06;10.60;;;1.60;;
21258;SDS011;10787;53.364;-1.480;2022-10-22T00:43:32;5.50;;;1.45;;
21258;SDS011;10787;53.364;-1.480;2022-10-22T00:46:18;3.87;;;1.37;;
21258;SDS011;10787;53.364;-1.480;2022-10-22T00:48:43;3.70;;;1.50;;
21258;SDS011;10787;53.364;-1.480;2022-10-22T00:51:09;5.75;;;1.77;;
21258;SDS011;10787;53.364;-1.480;2022-10-22T00:53:39;5.68;;;1.77;;
21258;SDS011;10787;53.364;-1.480;2022-10-22T00:56:09;9.55;;;1.70;;
21258;SDS011;10787;53.364;-1.480;2022-10-22T00:58:38;5.75;;;1.63;;
21258;SDS011;10787;53.364;-1.480;2022-10-22T01:01:12;5.10;;;1.70;;
21258;SDS011;10787;53.364;-1.480;2022-10-22T01:03:46;5.75;;;1.73;;
21258;SDS011;10787;53.364;-1.480;2022-10-22T01:06:15;5.82;;;1.50;;
21258;SDS011;10787;53.364;-1.480;2022-10-22T01:11:26;8.00;;;1.67;;
21258;SDS011;10787;53.364;-1.480;2022-10-22T01:16:21;6.82;;;1.90;;
21258;SDS011;10787;53.364;-1.480;2022-10-22T01:22:59;8.73;;;2.15;;
21258;SDS011;10787;53.364;-1.480;2022-10-22T01:31:25;6.35;;;2.17;;
21258;SDS011;10787;53.364;-1.480;2022-10-22T01:33:58;5.75;;;2.38;;
21258;SDS011;10787;53.364;-1.480;2022-10-22T01:36:26;6.10;;;2.40;;
21258;SDS011;10787;53.364;-1.480;2022-10-22T01:38:54;3.97;;;1.70;;
21258;SDS011;10787;53.364;-1.480;2022-10-22T01:41:21;4.60;;;1.90;;
21258;SDS011;10787;53.364;-1.480;2022-10-22T01:43:46;5.50;;;2.00;;
21258;SDS011;10787;53.364;-1.480;2022-10-22T01:46:12;5.38;;;1.80;;
21258;SDS011;10787;53.364;-1.480;2022-10-22T02:05:04;7.50;;;2.30;;
21258;SDS011;10787;53.364;-1.480;2022-10-22T02:07:42;8.30;;;2.40;;
21258;SDS011;10787;53.364;-1.480;2022-10-22T02:10:13;8.40;;;2.60;;
21258;SDS011;10787;53.364;-1.480;2022-10-22T02:12:42;5.57;;;2.57;;
21258;SDS011;10787;53.364;-1.480;2022-10-22T02:15:10;7.18;;;2.55;;
21258;SDS011;10787;53.364;-1.480;2022-10-22T02:17:38;10.00;;;2.47;;
21258;SDS011;10787;53.364;-1.480;2022-10-22T02:20:15;10.27;;;2.50;;
21258;SDS011;10787;53.364;-1.480;2022-10-22T02:22:43;6.55;;;2.42;;
21258;SDS011;10787;53.364;-1.480;2022-10-22T02:25:09;6.22;;;1.98;;
21258;SDS011;10787;53.364;-1.480;2022-10-22T02:30:16;5.60;;;2.20;;
21258;SDS011;10787;53.364;-1.480;2022-10-22T02:32:48;6.60;;;2.27;;
21258;SDS011;10787;53.364;-1.480;2022-10-22T02:35:31;9.10;;;2.27;;
21258;SDS011;10787;53.364;-1.480;2022-10-22T02:37:58;9.20;;;3.00;;
21258;SDS011;10787;53.364;-1.480;2022-10-22T02:40:25;7.30;;;2.13;;
21258;SDS011;10787;53.364;-1.480;2022-10-22T02:42:52;9.47;;;2.53;;
21258;SDS011;10787;53.364;-1.480;2022-10-22T02:45:18;7.10;;;2.40;;
21258;SDS011;10787;53.364;-1.480;2022-10-22T02:47:46;9.03;;;2.50;;
21258;SDS011;10787;53.364;-1.480;2022-10-22T02:50:12;7.30;;;2.47;;
21258;SDS011;10787;53.364;-1.480;2022-10-22T02:52:38;7.90;;;2.50;;
21258;SDS011;10787;53.364;-1.480;2022-10-22T02:55:04;7.43;;;2.40;;
21258;SDS011;10787;53.364;-1.480;2022-10-22T02:57:35;7.53;;;2.20;;
21258;SDS011;10787;53.364;-1.480;2022-10-22T03:00:02;5.53;;;2.03;;
21258;SDS011;10787;53.364;-1.480;2022-10-22T03:02:34;9.37;;;2.30;;
21258;SDS011;10787;53.364;-1.480;2022-10-22T03:05:04;6.33;;;2.23;;
21258;SDS011;10787;53.364;-1.480;2022-10-22T03:07:31;9.90;;;2.20;;
21258;SDS011;10787;53.364;-1.480;2022-10-22T03:09:57;6.07;;;2.00;;
21258;SDS011;10787;53.364;-1.480;2022-10-22T03:12:23;7.03;;;2.07;;
21258;SDS011;10787;53.364;-1.480;2022-10-22T03:14:49;11.37;;;2.10;;
21258;SDS011;10787;53.364;-1.480;2022-10-22T03:17:15;6.03;;;1.70;;
21258;SDS011;10787;53.364;-1.480;2022-10-22T03:19:41;4.80;;;1.83;;
21258;SDS011;10787;53.364;-1.480;2022-10-22T03:22:09;6.13;;;2.20;;
21258;SDS011;10787;53.364;-1.480;2022-10-22T03:24:40;6.35;;;2.05;;
21258;SDS011;10787;53.364;-1.480;2022-10-22T03:27:09;5.73;;;1.90;;
21258;SDS011;10787;53.364;-1.480;2022-10-22T03:29:37;6.47;;;2.00;;
21258;SDS011;10787;53.364;-1.480;2022-10-22T03:32:04;4.07;;;2.00;;
21258;SDS011;10787;53.364;-1.480;2022-10-22T03:34:30;7.25;;;2.50;;
21258;SDS011;10787;53.364;-1.480;2022-10-22T03:36:57;8.00;;;2.37;;
21258;SDS011;10787;53.364;-1.480;2022-10-22T03:39:25;7.17;;;2.10;;
21258;SDS011;10787;53.364;-1.480;2022-10-22T03:41:53;6.10;;;2.50;;
21258;SDS011;10787;53.364;-1.480;2022-10-22T03:44:19;6.73;;;2.27;;
21258;SDS011;10787;53.364;-1.480;2022-10-22T03:46:47;7.87;;;2.43;;
21258;SDS011;10787;53.364;-1.480;2022-10-22T03:49:13;8.13;;;2.33;;
21258;SDS011;10787;53.364;-1.480;2022-10-22T03:51:39;11.50;;;2.33;;
21258;SDS011;10787;53.364;-1.480;2022-10-22T03:54:05;6.43;;;2.40;;
21258;SDS011;10787;53.364;-1.480;2022-10-22T03:56:31;6.27;;;2.23;;
21258;SDS011;10787;53.364;-1.480;2022-10-22T03:58:57;10.25;;;2.50;;
21258;SDS011;10787;53.364;-1.480;2022-10-22T04:01:25;6.85;;;2.33;;
21258;SDS011;10787;53.364;-1.480;2022-10-22T04:03:54;7.55;;;2.33;;
21258;SDS011;10787;53.364;-1.480;2022-10-22T04:06:21;5.60;;;2.50;;
21258;SDS011;10787;53.364;-1.480;2022-10-22T04:08:47;10.37;;;2.37;;
21258;SDS011;10787;53.364;-1.480;2022-10-22T04:11:13;5.60;;;2.17;;
21258;SDS011;10787;53.364;-1.480;2022-10-22T04:13:39;7.90;;;1.90;;
21258;SDS011;10787;53.364;-1.480;2022-10-22T04:16:10;6.90;;;1.90;;
21258;SDS011;10787;53.364;-1.480;2022-10-22T04:18:38;6.47;;;1.95;;
21258;SDS011;10787;53.364;-1.480;2022-10-22T04:21:06;7.13;;;2.00;;
21258;SDS011;10787;53.364;-1.480;2022-10-22T04:23:32;6.27;;;1.70;;
21258;SDS011;10787;53.364;-1.480;2022-10-22T04:26:02;5.67;;;1.80;;
21258;SDS011;10787;53.364;-1.480;2022-10-22T04:28:29;3.03;;;1.40;;
21258;SDS011;10787;53.364;-1.480;2022-10-22T04:30:56;2.83;;;1.20;;
21258;SDS011;10787;53.364;-1.480;2022-10-22T04:33:21;4.73;;;1.23;;
21258;SDS011;10787;53.364;-1.480;2022-10-22T04:35:48;4.90;;;1.50;;
21258;SDS011;10787;53.364;-1.480;2022-10-22T04:38:14;3.73;;;1.33;;
21258;SDS011;10787;53.364;-1.480;2022-10-22T04:40:40;3.93;;;1.20;;
21258;SDS011;10787;53.364;-1.480;2022-10-22T04:43:07;3.95;;;1.30;;
21258;SDS011;10787;53.364;-1.480;2022-10-22T04:45:34;1.50;;;1.00;;
21258;SDS011;10787;53.364;-1.480;2022-10-22T04:48:00;3.50;;;1.30;;
21258;SDS011;10787;53.364;-1.480;2022-10-22T04:50:26;5.38;;;1.10;;
21258;SDS011;10787;53.364;-1.480;2022-10-22T04:52:53;3.70;;;0.83;;
21258;SDS011;10787;53.364;-1.480;2022-10-22T04:55:19;2.67;;;0.97;;
21258;SDS011;10787;53.364;-1.480;2022-10-22T04:57:44;5.10;;;1.23;;
21258;SDS011;10787;53.364;-1.480;2022-10-22T05:00:10;5.97;;;1.13;;
21258;SDS011;10787;53.364;-1.480;2022-10-22T05:02:36;6.50;;;1.00;;
21258;SDS011;10787;53.364;-1.480;2022-10-22T05:05:02;5.47;;;1.07;;
21258;SDS011;10787;53.364;-1.480;2022-10-22T05:07:28;4.07;;;0.90;;
21258;SDS011;10787;53.364;-1.480;2022-10-22T05:09:54;5.00;;;1.30;;
21258;SDS011;10787;53.364;-1.480;2022-10-22T05:12:20;5.53;;;1.20;;
21258;SDS011;10787;53.364;-1.480;2022-10-22T05:14:45;5.03;;;1.13;;
21258;SDS011;10787;53.364;-1.480;2022-10-22T05:17:11;6.40;;;1.33;;
21258;SDS011;10787;53.364;-1.480;2022-10-22T05:19:37;7.20;;;1.60;;
21258;SDS011;10787;53.364;-1.480;2022-10-22T05:22:03;6.03;;;1.37;;
21258;SDS011;10787;53.364;-1.480;2022-10-22T05:24:30;5.93;;;1.20;;
21258;SDS011;10787;53.364;-1.480;2022-10-22T05:26:57;6.73;;;1.40;;
21258;SDS011;10787;53.364;-1.480;2022-10-22T05:29:25;6.30;;;1.47;;
21258;SDS011;10787;53.364;-1.480;2022-10-22T05:31:53;5.80;;;1.27;;
21258;SDS011;10787;53.364;-1.480;2022-10-22T05:34:19;6.80;;;1.50;;
21258;SDS011;10787;53.364;-1.480;2022-10-22T05:36:46;4.53;;;1.20;;
21258;SDS011;10787;53.364;-1.480;2022-10-22T05:39:11;7.37;;;1.67;;
21258;SDS011;10787;53.364;-1.480;2022-10-22T05:41:37;6.90;;;1.50;;
21258;SDS011;10787;53.364;-1.480;2022-10-22T05:44:03;9.43;;;1.83;;
21258;SDS011;10787;53.364;-1.480;2022-10-22T05:46:31;8.33;;;1.70;;
21258;SDS011;10787;53.364;-1.480;2022-10-22T05:49:00;4.30;;;1.27;;
21258;SDS011;10787;53.364;-1.480;2022-10-22T05:51:27;7.60;;;1.60;;
21258;SDS011;10787;53.364;-1.480;2022-10-22T05:53:56;7.30;;;1.50;;
21258;SDS011;10787;53.364;-1.480;2022-10-22T05:56:23;10.43;;;1.93;;
21258;SDS011;10787;53.364;-1.480;2022-10-22T05:58:50;9.30;;;1.80;;
21258;SDS011;10787;53.364;-1.480;2022-10-22T06:01:18;10.70;;;1.67;;
21258;SDS011;10787;53.364;-1.480;2022-10-22T06:03:45;8.10;;;1.60;;
21258;SDS011;10787;53.364;-1.480;2022-10-22T06:06:24;7.70;;;1.70;;
21258;SDS011;10787;53.364;-1.480;2022-10-22T06:08:53;6.53;;;1.20;;
21258;SDS011;10787;53.364;-1.480;2022-10-22T06:11:21;7.40;;;1.90;;
21258;SDS011;10787;53.364;-1.480;2022-10-22T06:13:48;11.10;;;2.10;;
21258;SDS011;10787;53.364;-1.480;2022-10-22T06:16:16;11.27;;;1.70;;
21258;SDS011;10787;53.364;-1.480;2022-10-22T06:18:42;11.93;;;1.67;;
21258;SDS011;10787;53.364;-1.480;2022-10-22T06:21:09;5.97;;;1.40;;
21258;SDS011;10787;53.364;-1.480;2022-10-22T06:23:37;9.70;;;1.73;;
21258;SDS011;10787;53.364;-1.480;2022-10-22T06:26:04;6.50;;;1.60;;
21258;SDS011;10787;53.364;-1.480;2022-10-22T06:28:30;6.93;;;1.90;;
21258;SDS011;10787;53.364;-1.480;2022-10-22T06:30:58;9.40;;;1.67;;
21258;SDS011;10787;53.364;-1.480;2022-10-22T06:33:25;10.73;;;1.70;;
21258;SDS011;10787;53.364;-1.480;2022-10-22T06:35:52;7.43;;;1.73;;
21258;SDS011;10787;53.364;-1.480;2022-10-22T06:38:18;8.40;;;1.63;;
21258;SDS011;10787;53.364;-1.480;2022-10-22T06:40:44;7.90;;;1.93;;
21258;SDS011;10787;53.364;-1.480;2022-10-22T06:43:11;13.83;;;2.40;;
21258;SDS011;10787;53.364;-1.480;2022-10-22T06:45:38;9.30;;;1.80;;
21258;SDS011;10787;53.364;-1.480;2022-10-22T06:48:04;14.20;;;2.10;;
21258;SDS011;10787;53.364;-1.480;2022-10-22T06:50:32;9.77;;;1.80;;
21258;SDS011;10787;53.364;-1.480;2022-10-22T06:52:59;10.73;;;1.90;;
21258;SDS011;10787;53.364;-1.480;2022-10-22T06:55:25;9.90;;;1.90;;
21258;SDS011;10787;53.364;-1.480;2022-10-22T06:57:51;7.10;;;1.90;;
21258;SDS011;10787;53.364;-1.480;2022-10-22T07:00:17;8.63;;;1.70;;
21258;SDS011;10787;53.364;-1.480;2022-10-22T07:02:43;9.73;;;1.80;;
21258;SDS011;10787;53.364;-1.480;2022-10-22T07:05:08;10.03;;;2.07;;
21258;SDS011;10787;53.364;-1.480;2022-10-22T07:07:35;6.90;;;1.73;;
21258;SDS011;10787;53.364;-1.480;2022-10-22T07:10:00;7.70;;;1.60;;
21258;SDS011;10787;53.364;-1.480;2022-10-22T07:12:26;9.00;;;1.67;;
21258;SDS011;10787;53.364;-1.480;2022-10-22T07:14:52;5.67;;;1.70;;
21258;SDS011;10787;53.364;-1.480;2022-10-22T07:17:18;10.93;;;2.20;;
21258;SDS011;10787;53.364;-1.480;2022-10-22T07:19:44;5.93;;;1.60;;
21258;SDS011;10787;53.364;-1.480;2022-10-22T07:22:11;5.50;;;1.70;;
21258;SDS011;10787;53.364;-1.480;2022-10-22T07:24:36;9.67;;;2.30;;
21258;SDS011;10787;53.364;-1.480;2022-10-22T07:27:02;8.03;;;1.97;;
21258;SDS011;10787;53.364;-1.480;2022-10-22T07:29:28;9.00;;;2.10;;
21258;SDS011;10787;53.364;-1.480;2022-10-22T07:31:54;10.50;;;2.13;;
21258;SDS011;10787;53.364;-1.480;2022-10-22T07:34:20;14.10;;;2.20;;
21258;SDS011;10787;53.364;-1.480;2022-10-22T07:36:45;11.63;;;1.90;;
21258;SDS011;10787;53.364;-1.480;2022-10-22T07:39:11;7.33;;;1.63;;
21258;SDS011;10787;53.364;-1.480;2022-10-22T07:41:37;9.87;;;2.00;;
21258;SDS011;10787;53.364;-1.480;2022-10-22T07:44:03;8.80;;;1.83;;
21258;SDS011;10787;53.364;-1.480;2022-10-22T07:46:29;11.30;;;2.03;;
21258;SDS011;10787;53.364;-1.480;2022-10-22T07:48:54;11.60;;;2.20;;
21258;SDS011;10787;53.364;-1.480;2022-10-22T07:51:20;10.47;;;2.33;;
21258;SDS011;10787;53.364;-1.480;2022-10-22T07:53:46;7.77;;;1.97;;
21258;SDS011;10787;53.364;-1.480;2022-10-22T07:56:12;9.67;;;2.17;;
21258;SDS011;10787;53.364;-1.480;2022-10-22T07:58:38;14.50;;;2.00;;
21258;SDS011;10787;53.364;-1.480;2022-10-22T08:01:06;10.37;;;1.97;;
21258;SDS011;10787;53.364;-1.480;2022-10-22T08:03:31;11.53;;;2.37;;
21258;SDS011;10787;53.364;-1.480;2022-10-22T08:05:57;8.67;;;1.80;;
21258;SDS011;10787;53.364;-1.480;2022-10-22T08:08:24;11.13;;;2.10;;
21258;SDS011;10787;53.364;-1.480;2022-10-22T08:10:50;11.57;;;2.40;;
21258;SDS011;10787;53.364;-1.480;2022-10-22T08:13:17;11.87;;;2.40;;
21258;SDS011;10787;53.364;-1.480;2022-10-22T08:15:44;10.07;;;2.10;;
21258;SDS011;10787;53.364;-1.480;2022-10-22T08:18:11;14.53;;;2.40;;
21258;SDS011;10787;53.364;-1.480;2022-10-22T08:20:37;11.53;;;2.20;;
21258;SDS011;10787;53.364;-1.480;2022-10-22T08:23:03;12.80;;;2.33;;
21258;SDS011;10787;53.364;-1.480;2022-10-22T08:25:30;9.80;;;2.17;;
21258;SDS011;10787;53.364;-1.480;2022-10-22T08:27:56;10.17;;;1.83;;
21258;SDS011;10787;53.364;-1.480;2022-10-22T08:30:22;10.40;;;1.80;;
21258;SDS011;10787;53.364;-1.480;2022-10-22T08:32:48;7.57;;;1.87;;
21258;SDS011;10787;53.364;-1.480;2022-10-22T08:35:14;8.93;;;2.10;;
21258;SDS011;10787;53.364;-1.480;2022-10-22T08:37:40;12.07;;;2.23;;
21258;SDS011;10787;53.364;-1.480;2022-10-22T08:40:06;11.53;;;2.23;;
21258;SDS011;10787;53.364;-1.480;2022-10-22T08:45:10;11.03;;;2.20;;
21258;SDS011;10787;53.364;-1.480;2022-10-22T08:50:41;9.20;;;1.67;;
21258;SDS011;10787;53.364;-1.480;2022-10-22T08:53:12;10.90;;;2.00;;
21258;SDS011;10787;53.364;-1.480;2022-10-22T08:55:55;9.67;;;1.87;;
21258;SDS011;10787;53.364;-1.480;2022-10-22T09:01:09;11.23;;;1.97;;
21258;SDS011;10787;53.364;-1.480;2022-10-22T09:06:25;13.23;;;1.97;;
21258;SDS011;10787;53.364;-1.480;2022-10-22T09:08:52;9.70;;;2.30;;
21258;SDS011;10787;53.364;-1.480;2022-10-22T09:14:01;11.57;;;2.10;;
21258;SDS011;10787;53.364;-1.480;2022-10-22T09:19:12;12.07;;;2.10;;
21258;SDS011;10787;53.364;-1.480;2022-10-22T09:26:56;8.73;;;1.90;;
21258;SDS011;10787;53.364;-1.480;2022-10-22T09:29:23;9.33;;;1.80;;
21258;SDS011;10787;53.364;-1.480;2022-10-22T09:31:58;14.03;;;2.20;;
21258;SDS011;10787;53.364;-1.480;2022-10-22T09:34:24;10.75;;;1.98;;
21258;SDS011;10787;53.364;-1.480;2022-10-22T09:37:00;7.95;;;2.00;;
21258;SDS011;10787;53.364;-1.480;2022-10-22T09:39:37;10.77;;;2.03;;
21258;SDS011;10787;53.364;-1.480;2022-10-22T09:42:05;11.60;;;2.47;;
21258;SDS011;10787;53.364;-1.480;2022-10-22T09:44:33;13.60;;;2.83;;
21258;SDS011;10787;53.364;-1.480;2022-10-22T09:47:05;10.63;;;2.42;;
21258;SDS011;10787;53.364;-1.480;2022-10-22T09:49:32;10.82;;;2.10;;
21258;SDS011;10787;53.364;-1.480;2022-10-22T09:52:00;10.15;;;1.90;;
21258;SDS011;10787;53.364;-1.480;2022-10-22T09:57:14;10.25;;;2.53;;
21258;SDS011;10787;53.364;-1.480;2022-10-22T09:59:43;9.23;;;2.00;;
21258;SDS011;10787;53.364;-1.480;2022-10-22T10:02:13;10.43;;;1.80;;
21258;SDS011;10787;53.364;-1.480;2022-10-22T10:04:52;13.35;;;2.13;;
21258;SDS011;10787;53.364;-1.480;2022-10-22T10:07:21;10.30;;;2.15;;
21258;SDS011;10787;53.364;-1.480;2022-10-22T10:10:00;11.52;;;2.08;;
21258;SDS011;10787;53.364;-1.480;2022-10-22T10:15:44;10.95;;;2.25;;
21258;SDS011;10787;53.364;-1.480;2022-10-22T10:28:52;10.40;;;2.25;;
21258;SDS011;10787;53.364;-1.480;2022-10-22T10:39:02;9.30;;;1.92;;
21258;SDS011;10787;53.364;-1.480;2022-10-22T10:45:16;11.02;;;2.10;;
21258;SDS011;10787;53.364;-1.480;2022-10-22T10:50:52;9.27;;;2.08;;
21258;SDS011;10787;53.364;-1.480;2022-10-22T10:56:27;10.90;;;1.95;;
21258;SDS011;10787;53.364;-1.480;2022-10-22T10:59:22;7.63;;;1.65;;
21258;SDS011;10787;53.364;-1.480;2022-10-22T11:07:27;7.70;;;1.80;;
21258;SDS011;10787;53.364;-1.480;2022-10-22T11:10:10;8.65;;;1.85;;
21258;SDS011;10787;53.364;-1.480;2022-10-22T11:12:44;6.28;;;1.45;;
21258;SDS011;10787;53.364;-1.480;2022-10-22T11:15:21;12.43;;;4.47;;
21258;SDS011;10787;53.364;-1.480;2022-10-22T11:17:58;10.15;;;3.20;;
21258;SDS011;10787;53.364;-1.480;2022-10-22T11:20:51;9.88;;;1.90;;
21258;SDS011;10787;53.364;-1.480;2022-10-22T11:23:36;5.57;;;1.60;;
21258;SDS011;10787;53.364;-1.480;2022-10-22T11:26:09;6.70;;;1.65;;
21258;SDS011;10787;53.364;-1.480;2022-10-22T11:28:57;7.75;;;1.70;;
21258;SDS011;10787;53.364;-1.480;2022-10-22T11:31:26;10.48;;;2.17;;
21258;SDS011;10787;53.364;-1.480;2022-10-22T11:36:35;7.47;;;2.13;;
21258;SDS011;10787;53.364;-1.480;2022-10-22T11:39:02;5.40;;;1.75;;
21258;SDS011;10787;53.364;-1.480;2022-10-22T11:41:29;5.55;;;1.42;;
21258;SDS011;10787;53.364;-1.480;2022-10-22T11:46:44;6.40;;;1.60;;
21258;SDS011;10787;53.364;-1.480;2022-10-22T11:49:26;5.35;;;1.33;;
21258;SDS011;10787;53.364;-1.480;2022-10-22T11:55:00;6.30;;;1.73;;
21258;SDS011;10787;53.364;-1.480;2022-10-22T11:57:28;9.63;;;1.90;;
21258;SDS011;10787;53.364;-1.480;2022-10-22T12:00:06;6.20;;;1.60;;
21258;SDS011;10787;53.364;-1.480;2022-10-22T12:05:42;7.80;;;1.70;;
21258;SDS011;10787;53.364;-1.480;2022-10-22T12:10:35;5.10;;;1.80;;
21258;SDS011;10787;53.364;-1.480;2022-10-22T12:13:33;8.38;;;1.95;;
21258;SDS011;10787;53.364;-1.480;2022-10-22T12:16:35;5.32;;;1.73;;
21258;SDS011;10787;53.364;-1.480;2022-10-22T12:19:04;6.93;;;2.15;;
21258;SDS011;10787;53.364;-1.480;2022-10-22T12:21:38;8.13;;;2.03;;
21258;SDS011;10787;53.364;-1.480;2022-10-22T12:24:06;5.13;;;1.60;;
21258;SDS011;10787;53.364;-1.480;2022-10-22T12:26:37;8.32;;;1.85;;
21258;SDS011;10787;53.364;-1.480;2022-10-22T12:29:05;6.70;;;2.00;;
21258;SDS011;10787;53.364;-1.480;2022-10-22T12:31:37;6.68;;;1.60;;
21258;SDS011;10787;53.364;-1.480;2022-10-22T12:34:04;7.78;;;1.80;;
21258;SDS011;10787;53.364;-1.480;2022-10-22T12:36:31;7.35;;;1.90;;
21258;SDS011;10787;53.364;-1.480;2022-10-22T12:38:59;8.70;;;2.03;;
21258;SDS011;10787;53.364;-1.480;2022-10-22T12:41:30;4.97;;;1.50;;
21258;SDS011;10787;53.364;-1.480;2022-10-22T12:43:58;6.68;;;1.80;;
21258;SDS011;10787;53.364;-1.480;2022-10-22T12:46:25;6.30;;;1.60;;
21258;SDS011;10787;53.364;-1.480;2022-10-22T12:48:54;4.85;;;1.58;;
21258;SDS011;10787;53.364;-1.480;2022-10-22T12:51:25;6.63;;;1.88;;
21258;SDS011;10787;53.364;-1.480;2022-10-22T12:53:52;6.68;;;1.65;;
21258;SDS011;10787;53.364;-1.480;2022-10-22T12:56:21;7.03;;;2.25;;
21258;SDS011;10787;53.364;-1.480;2022-10-22T13:01:45;8.27;;;1.88;;
21258;SDS011;10787;53.364;-1.480;2022-10-22T13:09:40;6.18;;;2.08;;
21258;SDS011;10787;53.364;-1.480;2022-10-22T13:12:22;6.68;;;1.90;;
21258;SDS011;10787;53.364;-1.480;2022-10-22T13:14:49;6.93;;;2.10;;
21258;SDS011;10787;53.364;-1.480;2022-10-22T13:17:16;5.10;;;1.98;;
21258;SDS011;10787;53.364;-1.480;2022-10-22T13:24:51;5.88;;;1.80;;
21258;SDS011;10787;53.364;-1.480;2022-10-22T13:27:17;8.30;;;2.10;;
21258;SDS011;10787;53.364;-1.480;2022-10-22T13:29:43;7.40;;;1.80;;
21258;SDS011;10787;53.364;-1.480;2022-10-22T13:34:56;6.45;;;2.20;;
21258;SDS011;10787;53.364;-1.480;2022-10-22T13:37:24;7.40;;;1.92;;
21258;SDS011;10787;53.364;-1.480;2022-10-22T13:39:52;8.73;;;1.90;;
21258;SDS011;10787;53.364;-1.480;2022-10-22T13:42:18;6.93;;;1.90;;
21258;SDS011;10787;53.364;-1.480;2022-10-22T13:44:44;6.88;;;2.10;;
21258;SDS011;10787;53.364;-1.480;2022-10-22T13:47:18;7.25;;;2.20;;
21258;SDS011;10787;53.364;-1.480;2022-10-22T13:49:51;4.22;;;1.88;;
21258;SDS011;10787;53.364;-1.480;2022-10-22T13:52:23;5.35;;;1.90;;
21258;SDS011;10787;53.364;-1.480;2022-10-22T13:54:53;8.52;;;2.05;;
21258;SDS011;10787;53.364;-1.480;2022-10-22T13:57:19;4.40;;;1.90;;
21258;SDS011;10787;53.364;-1.480;2022-10-22T13:59:45;8.18;;;2.08;;
21258;SDS011;10787;53.364;-1.480;2022-10-22T14:02:11;7.25;;;1.90;;
21258;SDS011;10787;53.364;-1.480;2022-10-22T14:04:39;4.80;;;1.70;;
21258;SDS011;10787;53.364;-1.480;2022-10-22T14:07:15;9.02;;;1.90;;
21258;SDS011;10787;53.364;-1.480;2022-10-22T14:09:41;8.88;;;2.20;;
21258;SDS011;10787;53.364;-1.480;2022-10-22T14:12:16;5.15;;;1.88;;
21258;SDS011;10787;53.364;-1.480;2022-10-22T14:14:42;6.68;;;2.15;;
21258;SDS011;10787;53.364;-1.480;2022-10-22T14:17:10;6.88;;;2.63;;
21258;SDS011;10787;53.364;-1.480;2022-10-22T14:19:41;4.75;;;2.30;;
21258;SDS011;10787;53.364;-1.480;2022-10-22T14:22:12;6.00;;;2.30;;
21258;SDS011;10787;53.364;-1.480;2022-10-22T14:24:44;4.95;;;2.38;;
21258;SDS011;10787;53.364;-1.480;2022-10-22T14:27:12;4.80;;;2.20;;
21258;SDS011;10787;53.364;-1.480;2022-10-22T14:29:39;5.63;;;2.20;;
21258;SDS011;10787;53.364;-1.480;2022-10-22T14:32:13;5.78;;;2.60;;
21258;SDS011;10787;53.364;-1.480;2022-10-22T14:34:40;7.00;;;2.60;;
21258;SDS011;10787;53.364;-1.480;2022-10-22T14:37:14;6.45;;;2.70;;
21258;SDS011;10787;53.364;-1.480;2022-10-22T14:39:42;7.32;;;3.58;;
21258;SDS011;10787;53.364;-1.480;2022-10-22T14:42:11;11.52;;;4.00;;
21258;SDS011;10787;53.364;-1.480;2022-10-22T14:44:38;10.68;;;4.13;;
21258;SDS011;10787;53.364;-1.480;2022-10-22T14:47:04;7.05;;;2.80;;
21258;SDS011;10787;53.364;-1.480;2022-10-22T14:49:31;11.57;;;3.15;;
21258;SDS011;10787;53.364;-1.480;2022-10-22T14:51:58;6.97;;;2.78;;
21258;SDS011;10787;53.364;-1.480;2022-10-22T14:54:23;9.27;;;2.80;;
21258;SDS011;10787;53.364;-1.480;2022-10-22T14:56:49;6.30;;;2.53;;
21258;SDS011;10787;53.364;-1.480;2022-10-22T14:59:15;6.70;;;2.42;;
21258;SDS011;10787;53.364;-1.480;2022-10-22T15:01:41;9.30;;;2.97;;
21258;SDS011;10787;53.364;-1.480;2022-10-22T15:04:07;5.72;;;2.42;;
21258;SDS011;10787;53.364;-1.480;2022-10-22T15:06:33;7.28;;;2.42;;
21258;SDS011;10787;53.364;-1.480;2022-10-22T15:08:59;6.97;;;1.80;;
21258;SDS011;10787;53.364;-1.480;2022-10-22T15:11:25;5.45;;;1.90;;
21258;SDS011;10787;53.364;-1.480;2022-10-22T15:13:51;8.75;;;2.25;;
21258;SDS011;10787;53.364;-1.480;2022-10-22T15:16:17;7.25;;;2.10;;
21258;SDS011;10787;53.364;-1.480;2022-10-22T15:18:43;5.22;;;1.95;;
21258;SDS011;10787;53.364;-1.480;2022-10-22T15:21:13;5.82;;;2.10;;
21258;SDS011;10787;53.364;-1.480;2022-10-22T15:23:40;6.07;;;1.90;;
21258;SDS011;10787;53.364;-1.480;2022-10-22T15:26:07;5.47;;;2.08;;
21258;SDS011;10787;53.364;-1.480;2022-10-22T15:28:34;5.82;;;2.30;;
21258;SDS011;10787;53.364;-1.480;2022-10-22T15:31:01;6.35;;;1.90;;
21258;SDS011;10787;53.364;-1.480;2022-10-22T15:33:27;8.23;;;2.20;;
21258;SDS011;10787;53.364;-1.480;2022-10-22T15:35:54;7.15;;;2.65;;
21258;SDS011;10787;53.364;-1.480;2022-10-22T15:38:20;8.32;;;2.40;;
21258;SDS011;10787;53.364;-1.480;2022-10-22T15:40:58;7.72;;;1.80;;
21258;SDS011;10787;53.364;-1.480;2022-10-22T15:43:28;6.47;;;2.55;;
21258;SDS011;10787;53.364;-1.480;2022-10-22T15:46:08;7.30;;;2.78;;
21258;SDS011;10787;53.364;-1.480;2022-10-22T15:48:42;8.25;;;3.20;;
21258;SDS011;10787;53.364;-1.480;2022-10-22T15:51:16;8.35;;;2.90;;
21258;SDS011;10787;53.364;-1.480;2022-10-22T15:53:43;7.82;;;2.13;;
21258;SDS011;10787;53.364;-1.480;2022-10-22T15:56:14;8.15;;;2.67;;
21258;SDS011;10787;53.364;-1.480;2022-10-22T15:58:40;7.75;;;2.00;;
21258;SDS011;10787;53.364;-1.480;2022-10-22T16:01:06;4.53;;;1.60;;
21258;SDS011;10787;53.364;-1.480;2022-10-22T16:03:35;4.70;;;1.80;;
21258;SDS011;10787;53.364;-1.480;2022-10-22T16:06:01;6.75;;;1.70;;
21258;SDS011;10787;53.364;-1.480;2022-10-22T16:08:28;5.00;;;1.67;;
21258;SDS011;10787;53.364;-1.480;2022-10-22T16:10:54;5.07;;;1.88;;
21258;SDS011;10787;53.364;-1.480;2022-10-22T16:13:20;5.72;;;2.10;;
21258;SDS011;10787;53.364;-1.480;2022-10-22T16:15:49;6.78;;;2.20;;
21258;SDS011;10787;53.364;-1.480;2022-10-22T16:18:16;5.97;;;2.20;;
21258;SDS011;10787;53.364;-1.480;2022-10-22T16:20:43;6.97;;;2.63;;
21258;SDS011;10787;53.364;-1.480;2022-10-22T16:23:09;7.20;;;2.80;;
21258;SDS011;10787;53.364;-1.480;2022-10-22T16:25:40;8.73;;;3.50;;
21258;SDS011;10787;53.364;-1.480;2022-10-22T16:28:06;9.35;;;2.88;;
21258;SDS011;10787;53.364;-1.480;2022-10-22T16:30:33;9.27;;;2.80;;
21258;SDS011;10787;53.364;-1.480;2022-10-22T16:33:00;10.20;;;2.22;;
21258;SDS011;10787;53.364;-1.480;2022-10-22T16:35:27;8.50;;;2.50;;
21258;SDS011;10787;53.364;-1.480;2022-10-22T16:37:53;6.80;;;2.20;;
21258;SDS011;10787;53.364;-1.480;2022-10-22T16:40:19;8.52;;;2.50;;
21258;SDS011;10787;53.364;-1.480;2022-10-22T16:42:45;8.20;;;2.83;;
21258;SDS011;10787;53.364;-1.480;2022-10-22T16:45:11;8.40;;;2.63;;